Time;durP1;ratioP1;P1;durP2;ratioP2;P2;SDS_P1;SDS_P2;PMS_P1;PMS_P2;Temp;Humidity;BMP_temperature;BMP_pressure;BME280_temperature;BME280_humidity;BME280_pressure;Samples;Min_cycle;Max_cycle;Signal;HPM_P1;HPM_P2
2023/03/27 00:00:26;;;;;;;;;;;0.20;99.90;;;-1.69;92.84;100174.59;4898933;28;20117;-85
2023/03/27 00:02:52;;;;;;;3.33;0.98;;;0.20;99.90;;;-1.64;94.46;100182.34;4934003;28;19929;-84
2023/03/27 00:05:32;;;;;;;2.85;0.90;;;0.20;99.90;;;-1.63;95.33;100168.56;4909005;28;20094;-87
2023/03/27 00:08:00;;;;;;;2.10;0.82;;;0.20;99.90;;;-1.63;95.30;100172.88;4881299;28;20090;-86
2023/03/27 00:11:07;;;;;;;4.25;0.90;;;0.20;99.90;;;-1.62;95.57;100183.22;4902368;28;20034;-84
2023/03/27 00:13:53;;;;;;;2.10;1.00;;;0.20;99.90;;;-1.55;95.48;100195.19;4903405;28;20066;-86
2023/03/27 00:16:29;;;;;;;2.80;0.80;;;;;;;-1.60;95.36;100186.59;4916558;28;20503;-83
2023/03/27 00:18:55;;;;;;;2.38;0.55;;;;;;;-1.68;94.99;100185.81;4945009;28;20056;-83
2023/03/27 00:21:34;;;;;;;3.55;0.65;;;0.20;99.90;;;-1.66;95.17;100194.41;4929138;28;20034;-83
2023/03/27 00:24:14;;;;;;;2.08;0.60;;;0.20;99.90;;;-1.63;95.09;100194.38;4924866;28;20041;-83
2023/03/27 00:26:41;;;;;;;3.83;0.60;;;;;;;-1.59;94.66;100196.09;4917700;28;20065;-85
2023/03/27 00:29:17;;;;;;;3.55;0.57;;;0.30;99.90;;;-1.54;94.30;100209.81;4939535;28;20450;-83
2023/03/27 00:31:42;;;;;;;2.17;0.50;;;0.30;99.90;;;-1.54;94.45;100194.31;4895356;28;20042;-82
2023/03/27 00:34:09;;;;;;;4.03;0.50;;;0.30;99.90;;;-1.52;93.91;100205.50;4927464;28;20069;-82
2023/03/27 00:36:49;;;;;;;1.30;0.80;;;0.30;99.90;;;-1.52;93.42;100204.66;4935959;28;20113;-85
2023/03/27 00:39:27;;;;;;;3.08;1.30;;;0.30;99.90;;;-1.53;93.05;100205.53;4887996;28;20107;-84
2023/03/27 00:42:04;;;;;;;0.70;0.60;;;;;;;-1.58;92.78;100210.69;4911366;28;20039;-83
2023/03/27 00:44:43;;;;;;;;;;;;;;;;;;;;;
2023/03/27 00:47:11;;;;;;;3.33;0.52;;;0.20;99.90;;;-1.61;93.36;100210.72;4951485;28;20148;-83
2023/03/27 00:49:49;;;;;;;2.15;0.88;;;0.30;99.90;;;-1.53;93.71;100215.84;4938218;28;21722;-82
2023/03/27 00:52:17;;;;;;;1.95;0.60;;;0.30;99.90;;;-1.44;94.09;100200.31;4971152;28;20108;-81
2023/03/27 00:54:47;;;;;;;3.15;0.80;;;0.40;99.90;;;-1.35;94.33;100200.25;4953021;28;20038;-84
2023/03/27 00:57:18;;;;;;;1.52;0.63;;;0.40;99.90;;;-1.24;95.02;100208.78;4921104;28;20593;-82
2023/03/27 00:59:54;;;;;;;1.48;0.93;;;0.50;99.90;;;-1.17;95.14;100209.59;4938300;28;20035;-81
2023/03/27 01:02:21;;;;;;;4.03;0.82;;;0.60;99.90;;;-1.13;94.89;100206.13;4927212;28;20432;-82
2023/03/27 01:04:47;;;;;;;2.58;0.77;;;0.70;99.90;;;-1.12;94.67;100212.16;4927060;28;20031;-84
2023/03/27 01:07:27;;;;;;;0.77;0.60;;;0.60;99.90;;;-1.16;94.52;100208.72;4954056;28;20042;-82
2023/03/27 01:09:53;;;;;;;3.50;0.60;;;0.60;99.90;;;-1.24;94.69;100207.91;4919039;28;20051;-81
2023/03/27 01:12:29;;;;;;;5.22;0.80;;;0.60;99.90;;;-1.21;94.36;100210.47;4944244;28;20038;-80
2023/03/27 01:15:22;;;;;;;2.03;0.60;;;0.60;99.90;;;-1.24;95.28;100206.19;4962396;28;20045;-83
2023/03/27 01:18:36;;;;;;;1.30;0.55;;;0.60;99.90;;;-1.18;95.66;100217.38;4940714;28;20034;-82
2023/03/27 01:21:58;;;;;;;2.58;0.90;;;0.70;99.90;;;-1.13;96.13;100213.88;4969160;28;20033;-82
2023/03/27 01:25:12;;;;;;;3.13;0.93;;;0.70;99.90;;;-1.08;95.66;100221.59;4944954;28;20076;-83
2023/03/27 01:28:10;;;;;;;3.65;0.57;;;0.70;99.90;;;-1.09;95.86;100210.41;4961832;28;20047;-81
2023/03/27 01:30:55;;;;;;;1.52;0.55;;;0.70;99.90;;;-1.13;95.17;100213.88;4932048;28;20117;-82
2023/03/27 01:33:58;;;;;;;1.17;0.30;;;0.70;99.90;;;-1.14;94.58;100212.16;4961500;28;20116;-81
2023/03/27 01:36:45;;;;;;;3.13;0.77;;;0.70;99.90;;;-1.15;95.20;100212.16;4956190;28;20046;-82
2023/03/27 01:39:29;;;;;;;2.75;0.80;;;0.70;99.90;;;-1.13;94.79;100216.44;4953119;28;20042;-81
2023/03/27 01:42:41;;;;;;;2.15;0.68;;;0.70;99.90;;;-1.14;95.03;100214.75;4942967;28;20602;-81
2023/03/27 01:45:32;;;;;;;1.58;0.70;;;0.70;99.90;;;-1.14;95.44;100219.06;4920393;28;20038;-82
2023/03/27 01:48:12;;;;;;;1.40;0.60;;;0.60;99.90;;;-1.24;94.52;100226.84;4937551;28;20073;-81
2023/03/27 01:50:55;;;;;;;3.35;0.77;;;0.60;99.90;;;-1.28;95.08;100225.16;4936673;28;20058;-81
2023/03/27 01:53:51;;;;;;;2.88;0.80;;;0.60;99.90;;;-1.27;94.82;100233.78;4955421;28;20110;-81
2023/03/27 01:56:30;;;;;;;3.60;0.90;;;0.60;99.90;;;-1.23;95.27;100225.16;5000024;28;20086;-82
2023/03/27 01:59:17;;;;;;;4.88;1.23;;;0.60;99.90;;;-1.15;95.81;100231.09;4962750;28;20046;-81
2023/03/27 02:01:53;;;;;;;3.35;0.88;;;0.60;99.90;;;-1.12;95.66;100233.69;4962300;28;20201;-81
2023/03/27 02:04:42;;;;;;;3.63;0.60;;;0.70;99.90;;;-1.07;96.04;100233.66;4962214;28;20042;-80
2023/03/27 02:07:24;;;;;;;1.83;0.90;;;0.70;99.90;;;-1.07;95.80;100236.22;4930844;28;20037;-81
2023/03/27 02:09:59;;;;;;;2.10;0.95;;;0.60;99.90;;;-1.09;95.48;100243.13;4949024;28;20097;-81
2023/03/27 02:12:37;;;;;;;3.97;0.88;;;0.60;99.90;;;-1.14;95.50;100250.91;4952973;28;20025;-81
2023/03/27 02:15:19;;;;;;;2.15;1.00;;;0.60;99.90;;;-1.20;95.33;100238.03;4932786;28;20029;-81
2023/03/27 02:17:57;;;;;;;1.98;1.10;;;0.60;99.90;;;-1.21;95.14;100251.81;4962885;28;20038;-81
2023/03/27 02:20:25;;;;;;;1.63;0.70;;;0.60;99.90;;;-1.21;95.10;100259.56;4897815;28;20050;-82
2023/03/27 02:22:52;;;;;;;3.35;0.90;;;0.50;99.90;;;-1.29;94.61;100259.63;4940672;28;21098;-80
2023/03/27 02:25:40;;;;;;;4.20;0.75;;;0.50;99.90;;;-1.30;94.54;100265.63;4930496;28;20124;-80
2023/03/27 02:28:56;;;;;;;5.22;0.85;;;0.50;99.90;;;-1.34;94.72;100276.00;4942854;28;20058;-82
2023/03/27 02:31:54;;;;;;;3.83;1.02;;;0.50;99.90;;;-1.30;94.64;100280.28;4917517;28;20042;-80
2023/03/27 02:34:35;;;;;;;2.22;0.70;;;0.50;99.90;;;-1.33;94.14;100290.63;4956228;28;20042;-80
2023/03/27 02:37:18;;;;;;;3.03;0.95;;;0.50;99.90;;;-1.33;94.53;100285.47;4966013;28;20064;-81
2023/03/27 02:39:54;;;;;;;1.58;0.90;;;0.50;99.90;;;-1.36;95.01;100283.78;4929425;28;21383;-82
2023/03/27 02:42:40;;;;;;;2.00;0.60;;;0.50;99.90;;;-1.38;93.99;100294.94;4969886;28;20027;-80
2023/03/27 02:45:32;;;;;;;;;;;0.40;99.90;;;-1.49;93.85;100292.41;4938919;28;20050;-81
2023/03/27 02:48:16;;;;;;;3.10;0.73;;;0.40;99.90;;;-1.57;94.37;100292.47;4967499;28;20064;-81
2023/03/27 02:51:07;;;;;;;3.20;0.50;;;0.30;99.90;;;-1.66;94.52;100295.09;4925501;28;20048;-80
2023/03/27 02:53:44;;;;;;;0.68;0.40;;;0.10;99.90;;;-1.73;94.46;100290.78;4937126;28;20123;-81
2023/03/27 02:56:13;;;;;;;2.67;0.80;;;0.10;99.90;;;-1.77;94.48;100299.41;4914531;28;20039;-80
2023/03/27 02:59:03;;;;;;;2.90;0.85;;;0.10;99.90;;;-1.79;95.07;100299.44;4931166;28;20031;-79
2023/03/27 03:01:31;;;;;;;2.83;0.90;;;0.10;99.90;;;-1.73;95.49;100295.97;4933896;28;20250;-80
2023/03/27 03:04:07;;;;;;;4.82;0.70;;;0.10;99.90;;;-1.68;95.86;100301.97;4944710;28;20030;-80
2023/03/27 03:06:33;;;;;;;;;;;0.10;99.90;;;-1.68;95.71;100304.56;4956921;28;20137;-79
2023/03/27 03:09:03;;;;;;;3.50;0.65;;;0.10;99.90;;;-1.64;95.87;100308.84;4949634;28;20032;-80
2023/03/27 03:11:29;;;;;;;4.40;0.70;;;0.20;99.90;;;-1.59;96.94;100312.25;4934682;28;20043;-80
2023/03/27 03:14:03;;;;;;;3.72;0.80;;;0.20;99.90;;;-1.55;96.25;100313.13;4948382;28;20041;-81
2023/03/27 03:16:30;;;;;;;2.25;0.77;;;0.20;99.90;;;-1.58;96.39;100326.03;4929567;28;20047;-80
2023/03/27 03:18:56;;;;;;;6.32;0.88;;;0.20;99.90;;;-1.62;96.13;100317.47;4936486;28;20506;-81
2023/03/27 03:21:31;;;;;;;1.77;0.68;;;0.20;99.90;;;-1.64;95.85;100326.94;4932013;28;20674;-79
2023/03/27 03:23:57;;;;;;;3.33;0.90;;;0.20;99.90;;;-1.70;96.47;100332.94;4944786;28;20057;-81
2023/03/27 03:26:23;;;;;;;7.15;1.30;;;;;;;-1.74;96.22;100340.72;4941410;28;20046;-80
2023/03/27 03:28:49;;;;;;;3.88;1.55;;;0.10;99.90;;;-1.81;96.39;100336.41;4942269;28;20082;-81
2023/03/27 03:31:21;;;;;;;7.68;1.98;;;0.10;99.90;;;-1.88;96.04;100338.16;4972077;28;20054;-80
2023/03/27 03:33:47;;;;;;;5.45;2.03;;;0.00;99.90;;;-1.93;96.10;100340.75;4924728;28;20187;-81
2023/03/27 03:36:13;;;;;;;7.15;1.38;;;-0.10;99.90;;;-1.99;96.22;100351.06;4962030;28;20062;-81
2023/03/27 03:38:40;;;;;;;3.63;2.05;;;-0.10;99.90;;;-2.03;96.07;100353.66;4947024;28;20033;-81
2023/03/27 03:41:12;;;;;;;7.00;2.05;;;-0.10;99.90;;;-2.03;95.98;100351.06;4959526;28;20094;-81
2023/03/27 03:43:38;;;;;;;12.55;2.65;;;-0.10;99.90;;;-2.04;96.93;100352.81;4960408;28;20047;-81
2023/03/27 03:46:04;;;;;;;6.75;2.30;;;-0.10;99.90;;;-2.04;96.81;100352.81;4963412;28;20145;-81
2023/03/27 03:48:30;;;;;;;8.40;3.42;;;-0.20;99.90;;;-2.08;96.77;100354.50;4927174;28;20070;-80
2023/03/27 03:50:56;;;;;;;6.88;3.03;;;-0.20;99.90;;;-2.13;97.22;100357.97;4958726;28;20041;-81
2023/03/27 03:53:24;;;;;;;5.50;2.38;;;-0.20;99.90;;;-2.10;97.59;100365.69;4956528;28;20732;-79
2023/03/27 03:55:54;;;;;;;5.90;2.60;;;-0.20;99.90;;;-2.11;97.67;100364.84;4911123;28;20577;-80
2023/03/27 03:58:20;;;;;;;2.67;1.25;;;-0.20;99.90;;;-2.13;97.83;100368.28;4870967;28;20045;-80
2023/03/27 04:00:46;;;;;;;8.00;1.00;;;-0.30;99.90;;;-2.17;97.23;100370.00;4956708;28;20033;-80
2023/03/27 04:03:13;;;;;;;2.22;0.75;;;-0.30;99.90;;;-2.22;97.08;100370.88;4955149;28;20034;-80
2023/03/27 04:05:44;;;;;;;8.30;0.95;;;-0.30;99.90;;;-2.23;97.47;100364.00;4940499;28;20037;-80
2023/03/27 04:08:10;;;;;;;5.28;0.75;;;-0.40;99.90;;;-2.22;97.32;100373.47;4953238;28;20064;-80
2023/03/27 04:10:40;;;;;;;3.13;0.60;;;-0.30;99.90;;;-2.18;97.63;100378.63;4966246;28;20586;-80
2023/03/27 04:13:13;;;;;;;4.95;1.55;;;-0.30;99.90;;;-2.14;97.55;100380.34;4920668;28;20069;-80
2023/03/27 04:15:39;;;;;;;1.42;0.60;;;-0.30;99.90;;;-2.08;97.80;100387.19;4935257;28;20038;-79
2023/03/27 04:18:06;;;;;;;4.63;1.13;;;;;;;-2.05;97.61;100394.97;4954345;28;20052;-79
2023/03/27 04:20:33;;;;;;;1.40;0.45;;;-0.20;99.90;;;-2.02;97.36;100396.66;4916957;28;20038;-80
2023/03/27 04:23:04;;;;;;;2.08;0.55;;;-0.10;99.90;;;-1.94;97.38;100395.81;4954531;28;20117;-79
2023/03/27 04:25:30;;;;;;;2.50;0.65;;;-0.20;99.90;;;-1.91;97.24;100402.69;4953279;28;20038;-79
2023/03/27 04:27:56;;;;;;;1.73;0.80;;;-0.10;99.90;;;-1.94;96.88;100408.72;4950334;28;20466;-80
2023/03/27 04:30:26;;;;;;;4.65;1.17;;;-0.20;99.90;;;-1.97;96.43;100411.28;4926763;28;20125;-79
2023/03/27 04:32:56;;;;;;;4.30;1.00;;;-0.20;99.90;;;-2.02;96.51;100417.31;4959222;28;20121;-79
2023/03/27 04:35:22;;;;;;;1.85;0.80;;;-0.20;99.90;;;-2.12;96.48;100417.28;4960987;28;20046;-79
2023/03/27 04:37:49;;;;;;;3.90;0.90;;;-0.30;99.90;;;-2.18;96.12;100416.44;4960872;28;20027;-79
2023/03/27 04:40:19;;;;;;;2.65;0.85;;;-0.30;99.90;;;-2.20;96.18;100418.16;4977450;28;20033;-79
2023/03/27 04:42:45;;;;;;;2.40;0.80;;;-0.40;99.90;;;-2.22;96.70;100425.06;4935032;28;20169;-79
2023/03/27 04:45:16;;;;;;;4.97;0.93;;;-0.30;99.90;;;-2.22;96.54;100422.47;4973629;28;20030;-79
2023/03/27 04:47:42;;;;;;;2.17;0.65;;;-0.40;99.90;;;-2.27;96.45;100420.75;4977725;28;20038;-79
2023/03/27 04:50:13;;;;;;;2.92;0.90;;;-0.40;99.90;;;-2.28;97.01;100429.31;4929649;28;20088;-79
2023/03/27 04:52:41;;;;;;;3.60;0.80;;;-0.40;99.90;;;-2.31;96.61;100421.59;4947588;28;20058;-78
2023/03/27 04:55:10;;;;;;;1.88;0.70;;;-0.40;99.90;;;-2.33;96.90;100425.91;4950407;28;20146;-79
2023/03/27 04:57:36;;;;;;;3.30;0.90;;;-0.50;99.90;;;-2.34;96.69;100429.31;4985431;28;20470;-80
2023/03/27 05:00:15;;;;;;;3.83;1.17;;;-0.50;99.90;;;-2.30;97.41;100433.63;4972260;28;20060;-78
2023/03/27 05:02:42;;;;;;;4.32;1.02;;;-0.50;99.90;;;-2.30;97.17;100440.50;4982013;28;20044;-79
2023/03/27 05:05:12;;;;;;;1.98;0.80;;;-0.50;99.90;;;-2.31;97.78;100446.50;4960798;28;20029;-78
2023/03/27 05:07:38;;;;;;;1.27;0.65;;;-0.50;99.90;;;-2.32;97.23;100448.22;4997390;28;20038;-79
2023/03/27 05:10:05;;;;;;;3.00;1.08;;;-0.50;99.90;;;-2.31;97.06;100444.81;5002198;28;20143;-78
2023/03/27 05:12:31;;;;;;;1.88;0.80;;;-0.50;99.90;;;-2.31;97.24;100452.53;4974395;28;20047;-79
2023/03/27 05:14:58;;;;;;;5.60;0.93;;;-0.50;99.90;;;-2.30;97.60;100455.97;4959268;28;20045;-78
2023/03/27 05:17:24;;;;;;;1.33;0.90;;;-0.30;99.90;;;-2.28;97.35;100452.53;4925434;28;20046;-78
2023/03/27 05:19:50;;;;;;;7.25;1.10;;;-0.50;99.90;;;-2.25;97.76;100450.81;4976253;28;20042;-78
2023/03/27 05:22:17;;;;;;;4.00;1.25;;;-0.50;99.90;;;-2.22;97.52;100458.59;4953584;28;20026;-78
2023/03/27 05:24:42;;;;;;;2.88;1.15;;;-0.50;99.90;;;-2.20;97.36;100462.00;4979240;28;20081;-78
2023/03/27 05:27:09;;;;;;;3.63;1.73;;;-0.40;99.90;;;-2.15;97.05;100465.47;4972493;28;20105;-78
2023/03/27 05:29:35;;;;;;;4.70;1.17;;;-0.40;99.90;;;-1.90;96.74;100471.47;4963360;28;20468;-78
2023/03/27 05:32:01;;;;;;;3.33;1.20;;;-0.30;99.90;;;-1.83;96.21;100477.53;4966203;28;20113;-78
2023/03/27 05:34:34;;;;;;;5.25;1.05;;;-0.20;99.90;;;-1.67;95.51;100479.22;4960337;28;20374;-79
2023/03/27 05:37:04;;;;;;;2.70;0.90;;;-0.10;99.90;;;-1.62;95.32;100484.38;4954831;28;20035;-78
2023/03/27 05:39:32;;;;;;;4.10;0.90;;;-0.10;99.90;;;-1.65;94.90;100491.28;4951710;28;20042;-78
2023/03/27 05:41:58;;;;;;;2.78;1.15;;;0.00;99.90;;;-1.47;94.31;100498.16;4942924;28;20043;-78
2023/03/27 05:44:24;;;;;;;2.75;0.90;;;0.10;99.90;;;-1.45;94.17;100499.03;4977813;28;20110;-78
2023/03/27 05:46:50;;;;;;;3.20;1.50;;;0.10;99.90;;;-1.23;94.07;100509.34;4950786;28;20123;-78
2023/03/27 05:49:16;;;;;;;6.18;1.30;;;0.30;99.90;;;-0.38;92.45;100517.66;4952781;28;20047;-78
2023/03/27 05:51:42;;;;;;;5.68;1.23;;;0.50;99.90;;;-0.27;90.54;100518.44;4959642;28;20123;-78
2023/03/27 05:54:07;;;;;;;1.92;1.00;;;0.70;99.90;;;-0.13;88.65;100523.56;4970494;28;20570;-78
2023/03/27 05:56:33;;;;;;;3.90;0.98;;;0.80;99.90;;;0.06;87.79;100533.78;4976180;28;20034;-78
2023/03/27 05:59:06;;;;;;;6.45;0.90;;;0.90;99.90;;;0.25;86.11;100537.09;4958911;28;20652;-78
2023/03/27 06:01:34;;;;;;;7.22;1.08;;;1.10;99.90;;;0.32;85.15;100536.19;4944440;28;20041;-78
2023/03/27 06:04:01;;;;;;;3.78;1.20;;;1.10;99.90;;;-0.17;84.70;100527.03;4991736;28;20038;-78
2023/03/27 06:06:26;;;;;;;5.32;1.17;;;1.10;99.90;;;-0.49;85.22;100530.63;4969263;28;20111;-78
2023/03/27 06:08:54;;;;;;;8.40;0.85;;;1.00;99.90;;;-0.65;85.75;100529.84;4947977;28;20042;-78
2023/03/27 06:11:20;;;;;;;4.18;1.10;;;1.00;99.90;;;-0.08;85.48;100544.22;4944614;28;20121;-78
2023/03/27 06:13:46;;;;;;;1.67;0.80;;;1.00;99.90;;;0.00;85.05;100555.41;4952032;28;20787;-78
2023/03/27 06:16:13;;;;;;;6.30;1.40;;;1.30;99.90;;;1.13;83.36;100563.13;4956766;28;20090;-78
2023/03/27 06:18:39;;;;;;;3.85;1.30;;;1.60;99.90;;;1.64;81.46;100568.56;4977370;28;20038;-78
2023/03/27 06:21:05;;;;;;;3.13;1.00;;;1.80;99.90;;;1.81;78.84;100573.53;4987054;28;20223;-78
2023/03/27 06:23:34;;;;;;;5.05;1.65;;;2.00;99.90;;;0.90;78.69;100551.22;4976829;28;20411;-78
2023/03/27 06:26:00;;;;;;;1.58;0.75;;;1.90;99.90;;;0.68;79.42;100560.09;4933874;28;20035;-78
2023/03/27 06:28:26;;;;;;;5.00;1.10;;;1.80;99.90;;;0.34;79.25;100557.75;4970446;28;20062;-78
2023/03/27 06:30:51;;;;;;;5.57;1.20;;;2.10;99.90;;;4.06;76.00;100600.00;4970965;28;20403;-78
2023/03/27 06:33:18;;;;;;;4.22;0.70;;;2.80;99.90;;;5.66;67.54;100600.34;4969672;28;20121;-78
2023/03/27 06:35:44;;;;;;;2.15;0.82;;;3.30;99.90;;;3.88;66.56;100577.78;4962545;28;20034;-78
2023/03/27 06:38:15;;;;;;;3.08;0.90;;;3.50;99.90;;;4.19;67.48;100597.09;4985902;28;20054;-78
2023/03/27 06:40:41;;;;;;;3.33;0.80;;;3.90;99.90;;;6.24;62.96;100618.72;4973990;28;20090;-78
2023/03/27 06:43:09;;;;;;;2.13;1.17;;;4.20;99.90;;;5.08;62.72;100605.41;4946081;28;20114;-76
2023/03/27 06:45:40;;;;;;;3.97;0.93;;;4.50;99.90;;;5.92;62.69;100626.59;4987894;28;20049;-78
2023/03/27 06:48:06;;;;;;;1.88;0.77;;;4.80;99.90;;;7.16;60.21;100645.44;4963571;28;20059;-76
2023/03/27 06:50:32;;;;;;;5.35;0.60;;;5.60;99.90;;;9.08;55.87;100671.53;4950033;28;21549;-78
2023/03/27 06:52:59;;;;;;;1.90;0.82;;;6.40;99.90;;;11.23;51.42;100703.91;4962325;28;20045;-78
2023/03/27 06:55:27;;;;;;;2.55;0.88;;;7.50;99.90;;;12.87;47.20;100723.44;4970407;28;20407;-76
2023/03/27 06:57:59;;;;;;;1.42;0.90;;;8.70;99.90;;;14.23;44.55;100731.38;4957143;28;20062;-76
2023/03/27 07:00:36;;;;;;;2.95;0.80;;;9.60;99.90;;;14.62;42.88;100730.72;4951776;28;20038;-76
2023/03/27 07:03:07;;;;;;;5.95;1.02;;;10.60;99.90;;;15.59;41.69;100758.88;4950503;28;20030;-76
2023/03/27 07:05:35;;;;;;;3.65;1.17;;;11.00;98.60;;;14.80;40.43;100751.72;4963233;28;20458;-76
2023/03/27 07:08:08;;;;;;;1.73;0.57;;;11.10;97.40;;;14.00;40.55;100748.69;4956747;28;20042;-77
2023/03/27 07:10:34;;;;;;;1.30;0.60;;;10.80;96.50;;;12.99;41.31;100740.38;4967706;28;20035;-76
2023/03/27 07:13:00;;;;;;;3.83;0.50;;;10.90;97.50;;;13.06;41.59;100756.75;4975215;28;20034;-76
2023/03/27 07:15:26;;;;;;;3.40;0.73;;;10.70;96.60;;;12.75;41.98;100758.47;4968908;28;20037;-76
2023/03/27 07:18:01;;;;;;;2.67;0.75;;;10.50;96.90;;;10.91;45.10;100733.59;4952704;28;20022;-77
2023/03/27 07:20:30;;;;;;;2.92;0.47;;;10.20;97.50;;;11.41;43.66;100746.94;4949464;28;20169;-77
2023/03/27 07:22:57;;;;;;;0.82;0.40;;;10.20;97.60;;;11.33;43.68;100748.25;4964341;28;20046;-77
2023/03/27 07:25:36;;;;;;;1.80;0.50;;;10.40;95.80;;;11.76;42.26;100773.34;4976163;28;20047;-77
2023/03/27 07:28:09;;;;;;;2.60;0.60;;;10.60;95.40;;;11.81;42.32;100771.31;4946943;28;20146;-77
2023/03/27 07:30:36;;;;;;;1.60;0.43;;;10.40;94.60;;;10.59;42.02;100759.69;4965996;28;21095;-78
2023/03/27 07:33:04;;;;;;;2.33;0.40;;;10.20;95.30;;;10.45;43.79;100763.81;4971115;28;20114;-77
2023/03/27 07:35:30;;;;;;;3.40;0.50;;;9.40;94.90;;;8.09;46.82;100737.41;4969734;28;20100;-76
2023/03/27 07:38:03;;;;;;;2.72;0.65;;;8.70;96.20;;;7.76;48.57;100734.22;4899405;28;20027;-77
2023/03/27 07:40:32;;;;;;;3.63;0.98;;;8.80;95.60;;;8.89;44.87;100759.84;4939220;28;20473;-77
2023/03/27 07:42:58;;;;;;;2.78;0.70;;;9.20;94.80;;;9.60;43.15;100779.72;4953783;28;20050;-77
2023/03/27 07:45:29;;;;;;;2.65;0.50;;;9.80;94.70;;;10.42;43.07;100800.78;4939236;28;20026;-78
2023/03/27 07:48:14;;;;;;;0.63;0.30;;;10.60;95.30;;;10.59;41.50;100802.66;4924327;28;20065;-78
2023/03/27 07:50:41;;;;;;;1.17;0.50;;;10.50;91.60;;;10.34;41.03;100818.69;4918227;28;20030;-77
2023/03/27 07:53:09;;;;;;;1.13;0.40;;;10.50;91.50;;;9.92;41.46;100821.38;4955400;28;20048;-77
2023/03/27 07:55:40;;;;;;;2.60;0.47;;;10.70;91.20;;;10.32;41.16;100819.69;4955540;28;20048;-78
2023/03/27 07:58:07;;;;;;;0.70;0.40;;;10.90;92.00;;;10.31;41.63;100821.47;4980505;28;20286;-77
2023/03/27 08:00:37;;;;;;;2.63;0.45;;;11.00;92.90;;;10.33;42.86;100819.63;4959181;28;20045;-77
2023/03/27 08:03:09;;;;;;;0.55;0.38;;;10.90;92.10;;;9.64;42.72;100818.13;4963194;28;20056;-77
2023/03/27 08:05:36;;;;;;;2.15;0.70;;;10.90;93.10;;;9.90;43.67;100829.34;4977486;28;20030;-77
2023/03/27 08:08:03;;;;;;;1.35;0.40;;;10.70;93.20;;;9.16;44.66;100818.34;4980534;28;20061;-77
2023/03/27 08:10:29;;;;;;;0.90;0.50;;;10.70;93.70;;;9.48;44.84;100811.78;4970840;28;20395;-76
2023/03/27 08:12:55;;;;;;;1.25;0.47;;;10.80;94.00;;;9.39;44.46;100806.88;5003158;28;20399;-79
2023/03/27 08:15:21;;;;;;;1.38;0.35;;;10.60;93.10;;;9.08;44.21;100817.78;4939606;28;20029;-77
2023/03/27 08:17:52;;;;;;;3.53;0.43;;;10.50;93.20;;;9.21;45.17;100819.84;4980935;28;20122;-77
2023/03/27 08:20:18;;;;;;;0.35;0.30;;;10.20;92.30;;;7.65;44.82;100804.50;4957597;28;20030;-77
2023/03/27 08:22:44;;;;;;;1.55;0.55;;;9.10;93.00;;;6.07;47.30;100778.69;4968062;28;20090;-77
2023/03/27 08:25:10;;;;;;;0.50;0.40;;;7.80;94.90;;;4.61;50.63;100756.09;4969889;28;20130;-77
2023/03/27 08:27:36;;;;;;;1.35;0.40;;;7.40;97.10;;;5.83;51.76;100782.78;4936826;28;20088;-78
2023/03/27 08:30:03;;;;;;;0.75;0.55;;;7.90;97.00;;;6.95;49.25;100795.34;4966172;28;20498;-77
2023/03/27 08:32:30;;;;;;;1.27;0.50;;;8.20;96.10;;;7.02;48.80;100806.50;4928992;28;20684;-78
2023/03/27 08:34:56;;;;;;;6.78;0.60;;;9.00;96.60;;;8.32;47.50;100831.03;4964055;28;20042;-78
2023/03/27 08:37:22;;;;;;;1.60;0.50;;;9.70;94.20;;;8.78;45.44;100853.00;4959072;28;20030;-77
2023/03/27 08:39:48;;;;;;;3.22;0.70;;;10.00;94.30;;;8.70;45.44;100849.81;4945939;28;20026;-77
2023/03/27 08:42:20;;;;;;;2.00;0.40;;;10.30;92.50;;;8.74;44.69;100856.66;4958077;28;20066;-79
2023/03/27 08:44:51;;;;;;;1.65;0.40;;;10.40;94.40;;;9.10;45.81;100863.22;4929656;28;20030;-78
2023/03/27 08:47:45;;;;;;;2.85;0.40;;;10.30;93.50;;;8.54;45.22;100862.63;4950295;28;20037;-78
2023/03/27 08:51:02;;;;;;;2.78;0.52;;;10.50;93.60;;;8.87;44.20;100882.47;4974487;28;21155;-77
2023/03/27 08:53:45;;;;;;;9.95;0.85;;;10.50;92.90;;;8.83;44.62;100874.72;4953697;28;20031;-77
2023/03/27 08:56:14;;;;;;;1.13;0.68;;;10.50;94.60;;;8.96;46.04;100874.25;4968949;28;20573;-77
2023/03/27 08:58:42;;;;;;;3.05;0.35;;;9.80;94.20;;;7.27;47.36;100845.88;4973378;28;20387;-78
2023/03/27 09:01:32;;;;;;;3.95;0.75;;;8.50;95.40;;;5.59;50.71;100821.69;4930641;28;20043;-77
2023/03/27 09:04:27;;;;;;;1.13;0.73;;;7.50;97.60;;;5.75;52.64;100823.03;4976170;28;20033;-77
2023/03/27 09:07:16;;;;;;;1.35;0.52;;;7.80;99.40;;;6.92;52.12;100843.44;4974142;28;20027;-77
2023/03/27 09:09:58;;;;;;;2.35;0.45;;;8.20;96.60;;;7.35;49.16;100857.00;4956417;28;20047;-78
2023/03/27 09:12:42;;;;;;;1.35;0.50;;;8.60;96.20;;;7.44;47.90;100866.31;4958161;28;20036;-78
2023/03/27 09:15:33;;;;;;;1.77;0.65;;;8.40;95.90;;;7.22;49.17;100866.13;4968270;28;20480;-77
2023/03/27 09:18:33;;;;;;;0.93;0.47;;;8.50;96.80;;;7.29;49.88;100859.78;4966049;28;20438;-78
2023/03/27 09:21:12;;;;;;;1.48;0.65;;;8.50;97.40;;;7.25;49.33;100866.03;4978248;28;20051;-78
2023/03/27 09:23:46;;;;;;;1.48;0.60;;;8.00;95.70;;;6.44;49.19;100856.16;4955099;28;20027;-78
2023/03/27 09:26:30;;;;;;;10.48;0.55;;;7.70;97.40;;;5.99;50.49;100859.94;4982114;28;20046;-79
2023/03/27 09:29:16;;;;;;;3.80;0.50;;;7.30;96.80;;;5.62;50.55;100852.13;4927900;28;20038;-79
2023/03/27 09:31:49;;;;;;;;;;;7.20;96.60;;;5.46;50.67;100859.47;4963868;28;20103;-78
2023/03/27 09:34:34;;;;;;;1.75;0.45;;;7.00;98.40;;;5.46;52.05;100857.69;4952792;28;19982;-79
2023/03/27 09:37:01;;;;;;;1.67;0.50;;;6.90;96.80;;;5.49;50.92;100862.00;4942268;28;20052;-79
2023/03/27 09:39:36;;;;;;;0.57;0.50;;;6.90;96.90;;;5.41;51.06;100871.78;4960155;28;20046;-81
2023/03/27 09:42:23;;;;;;;4.63;0.40;;;6.80;97.00;;;5.35;50.83;100870.16;4941584;28;20091;-80
2023/03/27 09:45:05;;;;;;;0.82;0.45;;;6.90;95.30;;;5.50;49.16;100879.38;4978450;28;20595;-78
2023/03/27 09:47:58;;;;;;;0.57;0.20;;;6.80;95.00;;;5.20;48.41;100883.53;4932107;28;20042;-80
2023/03/27 09:50:48;;;;;;;0.50;0.30;;;6.80;95.20;;;5.37;49.70;100891.00;4938959;28;20046;-81
2023/03/27 09:53:29;;;;;;;1.42;0.60;;;6.80;97.30;;;5.54;50.52;100889.72;4968714;28;20062;-81
2023/03/27 09:56:15;;;;;;;4.93;0.40;;;7.00;97.10;;;5.73;50.48;100897.16;4931143;28;20080;-81
2023/03/27 09:58:49;;;;;;;2.13;0.32;;;7.00;94.90;;;5.61;48.37;100900.03;4962532;28;20580;-79
2023/03/27 10:01:33;;;;;;;3.88;0.50;;;7.00;96.60;;;5.52;49.57;100896.72;4899481;28;20054;-81
2023/03/27 10:04:00;;;;;;;1.33;0.57;;;6.80;97.90;;;5.12;51.96;100881.97;4935182;28;20114;-79
2023/03/27 10:07:04;;;;;;;1.17;0.50;;;6.70;97.80;;;4.99;51.49;100885.75;4990412;28;20116;-81
2023/03/27 10:09:35;;;;;;;2.78;0.70;;;6.70;97.50;;;5.28;51.29;100898.16;4914640;28;20074;-80
2023/03/27 10:12:18;;;;;;;2.53;0.57;;;6.50;95.70;;;4.87;49.93;100894.66;4918501;28;20102;-80
2023/03/27 10:14:50;;;;;;;1.25;0.57;;;6.40;95.90;;;4.86;49.52;100899.91;4936009;28;20693;-80
2023/03/27 10:17:36;;;;;;;1.35;0.50;;;6.40;95.30;;;5.16;48.90;100900.16;4918548;28;20043;-80
2023/03/27 10:20:17;;;;;;;1.13;0.50;;;6.60;96.80;;;5.42;49.81;100902.19;4963174;28;20057;-80
2023/03/27 10:23:07;;;;;;;3.60;0.55;;;6.50;95.70;;;4.96;49.04;100906.66;4980336;28;20041;-81
2023/03/27 10:25:48;;;;;;;0.35;0.30;;;6.40;96.90;;;5.01;50.33;100903.94;4930565;28;20073;-80
2023/03/27 10:28:28;;;;;;;4.38;0.60;;;6.50;97.00;;;5.23;50.79;100901.78;4957199;28;20046;-81
2023/03/27 10:31:10;;;;;;;0.93;0.45;;;6.70;97.20;;;5.56;50.18;100907.97;4959607;28;20035;-82
2023/03/27 10:33:45;;;;;;;0.95;0.60;;;6.70;95.70;;;5.30;48.85;100906.81;4958625;28;20039;-81
2023/03/27 10:36:11;;;;;;;0.82;0.40;;;6.60;95.90;;;5.17;48.90;100907.13;4935106;28;20029;-81
2023/03/27 10:38:51;;;;;;;0.88;0.50;;;;;;;5.13;48.94;100915.00;4933662;28;20380;-81
2023/03/27 10:41:21;;;;;;;1.35;0.52;;;6.50;95.60;;;4.96;48.86;100914.50;4948401;28;20053;-81
2023/03/27 10:43:59;;;;;;;2.13;0.38;;;;;;;5.37;49.56;100911.91;4918934;28;20097;-81
2023/03/27 10:46:52;;;;;;;0.88;0.68;;;6.70;94.80;;;5.51;47.67;100922.91;4947124;28;20041;-82
2023/03/27 10:50:37;;;;;;;1.75;0.60;;;7.00;96.00;;;6.11;48.17;100951.16;4919592;28;20529;-84
2023/03/27 10:53:36;;;;;;;2.25;0.55;;;7.50;95.30;;;6.50;47.49;100958.00;4911553;28;20044;-82